Nearby METAR Reports

 

KSJC - San Jose, California, USA
Distance from station: NØ 14km
Oppdatert: 23/08/2019 23:53
Few Clouds
Few Clouds
 Vind fra NV
Vind: NV 19 km/h
Temperatur: 28°C
Heat Index: 29°C
Duggpunkt: 18°C
Fuktighet: 55%
Barometer: 1008.5 hPa
Clouds: Few Clouds
Visibility: 16 km
Cloud details: Few Clouds 1219 m
Few Clouds 3353 m
2019/08/23 21:53 KSJC 232153Z 32010KT 10SM FEW040 FEW110 28/18 A2978 RMK AO2 SLP083 T02780178 $
KNUQ - Moffett Nas/Mtn, California, USA
Distance from station: N 14km
Oppdatert: 23/08/2019 23:56
Klart
Klart
 Vind fra NNV
Vind: NNV 19 km/h
Temperatur: 27°C
Heat Index: 28°C
Duggpunkt: 17°C
Fuktighet: 54%
Barometer: 1008.8 hPa
Clouds: Klart
Visibility: 16 km
2019/08/23 21:56 KNUQ 232156Z 33010KT 10SM CLR 27/17 A2979 RMK AO2 SLP091 T02670167
 
KPAO - Palo Alto, California, USA
Distance from station: NNV 23km
Oppdatert: 24/08/2019 00:47
Klart
Klart
 Vind fra NNV
Vind: NNV 22 km/h
Temperatur: 25°C
Duggpunkt: 17°C
Fuktighet: 61%
Barometer: 1008.5 hPa
Clouds: Klart
Visibility: 16 km
2019/08/23 22:47 KPAO 232247Z 34012KT 10SM SKC 25/17 A2978
KRHV - San Jose/Reid, California, USA
Distance from station: ØNØ 19km
Oppdatert: 23/08/2019 23:47
Klart
Klart
 Vind fra NV
Vind: NV 19 km/h
Temperatur: 31°C
Heat Index: 32°C
Duggpunkt: 17°C
Fuktighet: 43%
Barometer: 1008.5 hPa
Clouds: Klart
Visibility: 16 km
2019/08/23 21:47 KRHV 232147Z 31010KT 10SM SKC 31/17 A2978
 
KOAK - Oakland, California, USA
Distance from station: NNV 50km
Oppdatert: 23/08/2019 23:53
Few Clouds
Few Clouds
 Vind fra NV
Vind: NV 26 km/h
Temperatur: 24°C
Duggpunkt: 15°C
Fuktighet: 57%
Barometer: 1009.5 hPa
Clouds: Few Clouds
Visibility: 16 km
Cloud details: Few Clouds 305 m
2019/08/23 21:53 KOAK 232153Z 31014KT 10SM FEW010 24/15 A2981 RMK AO2 SLP095 T02390150
KSQL - San Carlos Airpo, California, USA
Distance from station: NV 34km
Oppdatert: 24/08/2019 00:47
Klart
Klart
 Vind fra V
Vind: V 19 km/h
Temperatur: 25°C
Duggpunkt: 15°C
Fuktighet: 54%
Barometer: 1008.8 hPa
Clouds: Klart
Visibility: 16 km
2019/08/23 22:47 KSQL 232247Z 27010KT 10SM SKC 25/15 A2979
 
KSFO - San Francisco, California, USA
Distance from station: NV 49km
Oppdatert: 23/08/2019 23:56
Few Clouds
Few Clouds
 Vind fra NNØ
Vind: NNØ 9 km/h
Temperatur: 26°C
Duggpunkt: 15°C
Fuktighet: 51%
Barometer: 1008.8 hPa
Clouds: Few Clouds
Visibility: 16 km
Cloud details: Few Clouds 305 m
2019/08/23 21:56 KSFO 232156Z 02005KT 10SM FEW010 26/15 A2979 RMK AO2 SLP087 T02560150
KE16 - San Martin, California, USA
Distance from station: ØSØ 43km
Oppdatert: 05/08/2019 19:10
NOT Current
Klart
Klart
 Vind fra ØSØ
Vind: ØSØ 19 km/h
Temperatur: 19°C
Duggpunkt: 14°C
Fuktighet: 73%
Barometer: 1016.9 hPa
Clouds: Klart
Visibility: 16 km
2019/08/05 17:10 KE16 051710Z AUTO 12010KT 10SM CLR 19/14 A3003 RMK AO2
 
KWVI - Watsonville, California, USA
Distance from station: SSØ 44km
Oppdatert: 23/08/2019 23:53
Delvis skyet
Delvis skyet
 Vind fra VSV
Vind: VSV 20 km/h, Vindkast: 33 km/h
Temperatur: 21°C
Duggpunkt: 13°C
Fuktighet: 60%
Barometer: 1011.9 hPa
Clouds: Delvis skyet
Visibility: 16 km
Cloud details: Delvis skyet 427 m
2019/08/23 21:53 KWVI 232153Z AUTO 25011G18KT 10SM SCT014 21/13 A2988 RMK AO2 SLP116 T02060133
KHAF - Half Moon Bay, California, USA
Distance from station: VNV 50km
Oppdatert: 24/08/2019 00:40
Hovedsaklig skyet
Hovedsaklig skyet
 Vind fra S
Vind: S 31 km/h, Vindkast: 39 km/h
Temperatur: 18°C
Duggpunkt: 14°C
Fuktighet: 78%
Barometer: 1010.8 hPa
Clouds: Hovedsaklig skyet
Visibility: 13 km
Cloud details: Hovedsaklig skyet 457 m
2019/08/23 22:40 KHAF 232240Z AUTO 19017G21KT 8SM BKN015 18/14 A2985 RMK AO2
 
KHWD - Hayward, California, USA
Distance from station: N 44km
Oppdatert: 23/08/2019 23:54
Klart
Klart
 Vind fra NV
Vind: NV 15 km/h
Temperatur: 26°C
Duggpunkt: 16°C
Fuktighet: 54%
Barometer: 1008.8 hPa
Clouds: Klart
Visibility: 16 km
2019/08/23 21:54 KHWD 232154Z 32008KT 10SM CLR 26/16 A2979 RMK AO2 SLP098 T02610156
KLVK - Livermore, California, USA
Distance from station: NNØ 51km
Oppdatert: 23/08/2019 23:53
Klart
Klart
 Vind fra NV
Vind: NV 22 km/h
Temperatur: 33°C
Duggpunkt: 16°C
Fuktighet: 36%
Barometer: 1007.5 hPa
Clouds: Klart
Visibility: 16 km
2019/08/23 21:53 KLVK 232153Z 31012KT 10SM CLR 33/16 A2975 RMK AO2 SLP071 T03280161